Time;durP1;ratioP1;P1;durP2;ratioP2;P2;SDS_P1;SDS_P2;PMS_P1;PMS_P2;Temp;Humidity;BMP_temperature;BMP_pressure;BME280_temperature;BME280_humidity;BME280_pressure;Samples;Min_cycle;Max_cycle;Signal;HPM_P1;HPM_P2
2021/09/11 10:17:33;;;;;;;3.75;1.40;;;19.80;99.90;;;;;;12082604;27;20399;-66
2021/09/11 10:23:20;;;;;;;2.95;1.50;;;20.30;99.90;;;;;;12034628;27;20082;-64
2021/09/11 10:29:36;;;;;;;4.18;1.83;;;20.70;99.90;;;;;;12071715;27;20095;-64
2021/09/11 10:35:25;;;;;;;3.67;1.45;;;21.10;99.90;;;;;;12028838;27;20512;-64
2021/09/11 10:41:14;;;;;;;2.35;1.77;;;21.40;99.90;;;;;;12053830;27;20056;-64
2021/09/11 10:47:01;;;;;;;3.42;1.50;;;21.60;99.90;;;;;;12058395;27;20114;-64
2021/09/11 10:52:57;;;;;;;3.38;1.40;;;21.70;99.70;;;;;;12072511;27;20512;-64
2021/09/11 10:58:44;;;;;;;9.43;1.63;;;21.90;99.20;;;;;;12071919;27;20047;-64
2021/09/11 11:04:33;;;;;;;6.10;1.20;;;22.00;98.80;;;;;;12047743;27;20048;-64
2021/09/11 11:10:22;;;;;;;6.45;1.90;;;22.50;98.50;;;;;;12022558;28;20385;-64
2021/09/11 11:16:09;;;;;;;2.75;1.50;;;22.20;98.00;;;;;;12026091;28;20036;-64
2021/09/11 11:21:59;;;;;;;3.53;1.60;;;22.40;97.90;;;;;;12070583;27;20036;-64
2021/09/11 11:27:48;;;;;;;4.18;1.88;;;22.40;97.40;;;;;;12027796;27;20049;-63
2021/09/11 11:33:45;;;;;;;3.10;1.58;;;22.50;97.50;;;;;;12012493;28;20044;-64
2021/09/11 11:39:33;;;;;;;2.72;1.30;;;22.90;97.60;;;;;;12025111;28;20052;-65
2021/09/11 11:45:27;;;;;;;5.32;1.63;;;22.60;95.60;;;;;;12038043;28;20052;-64
2021/09/11 11:51:14;;;;;;;4.53;1.83;;;22.60;95.90;;;;;;12043844;28;20500;-64
2021/09/11 11:57:08;;;;;;;5.18;1.77;;;22.80;95.80;;;;;;12003283;28;20049;-65
2021/09/11 12:02:57;;;;;;;3.88;1.63;;;23.00;95.00;;;;;;12002644;28;20095;-64
2021/09/11 12:08:43;;;;;;;1.60;1.27;;;23.20;94.40;;;;;;12039787;27;20096;-65
2021/09/11 12:14:31;;;;;;;2.17;1.63;;;23.20;94.50;;;;;;12009397;28;20060;-65
2021/09/11 12:20:20;;;;;;;6.97;1.42;;;23.10;94.10;;;;;;12025207;28;20107;-65
2021/09/11 12:26:09;;;;;;;2.42;1.70;;;23.00;94.00;;;;;;12039506;27;20048;-65
2021/09/11 12:31:57;;;;;;;5.20;1.50;;;23.10;94.40;;;;;;12037347;28;20041;-65
2021/09/11 12:37:56;;;;;;;4.60;1.75;;;23.10;94.00;;;;;;11990567;28;20045;-65
2021/09/11 12:43:43;;;;;;;3.47;1.40;;;22.80;94.30;;;;;;11991963;28;20517;-65
2021/09/11 12:49:30;;;;;;;3.38;1.70;;;22.90;94.90;;;;;;11994338;28;20053;-65
2021/09/11 12:55:19;;;;;;;5.55;1.60;;;22.90;94.50;;;;;;11993378;28;20390;-65
2021/09/11 13:01:06;;;;;;;5.68;1.52;;;23.20;94.50;;;;;;12012416;28;20067;-65
2021/09/11 13:06:52;;;;;;;4.57;1.60;;;23.40;94.30;;;;;;12006643;27;20068;-65
2021/09/11 13:12:41;;;;;;;7.82;1.90;;;23.30;93.30;;;;;;12059069;28;20432;-65
2021/09/11 13:18:27;;;;;;;3.97;1.73;;;23.30;93.40;;;;;;12064203;28;20093;-65
2021/09/11 13:24:14;;;;;;;3.08;1.35;;;23.40;93.90;;;;;;12063853;28;20080;-65
2021/09/11 13:30:03;;;;;;;3.05;1.48;;;23.60;93.20;;;;;;12064520;28;20102;-65
2021/09/11 13:35:50;;;;;;;2.38;1.40;;;23.60;93.00;;;;;;12063289;28;20051;-65
2021/09/11 13:41:37;;;;;;;5.28;2.00;;;23.60;92.20;;;;;;12063474;28;20561;-65
2021/09/11 13:47:25;;;;;;;3.95;1.50;;;23.90;92.80;;;;;;12010412;28;20048;-65
2021/09/11 13:53:12;;;;;;;2.28;1.10;;;24.00;91.60;;;;;;12013730;28;20045;-65
2021/09/11 13:58:59;;;;;;;3.88;1.63;;;24.10;91.00;;;;;;12039064;27;20049;-65
2021/09/11 14:04:48;;;;;;;4.97;1.50;;;23.90;91.30;;;;;;12032972;28;20049;-65
2021/09/11 14:10:34;;;;;;;2.97;1.27;;;23.90;91.20;;;;;;12035059;28;20036;-65
2021/09/11 14:16:21;;;;;;;2.95;1.65;;;24.00;91.60;;;;;;12037372;28;20640;-65
2021/09/11 14:22:10;;;;;;;3.80;1.77;;;24.30;91.50;;;;;;12008508;28;20056;-65
2021/09/11 14:27:56;;;;;;;3.17;1.45;;;24.60;90.30;;;;;;12030701;28;20430;-65
2021/09/11 14:33:43;;;;;;;3.33;1.70;;;24.60;90.50;;;;;;12008768;27;20464;-65
2021/09/11 14:39:31;;;;;;;4.13;1.63;;;24.70;90.70;;;;;;12005764;28;20110;-64
2021/09/11 14:45:18;;;;;;;4.38;1.40;;;24.70;90.10;;;;;;12029938;27;20052;-64
2021/09/11 14:51:05;;;;;;;3.35;1.30;;;24.50;88.80;;;;;;12031076;28;20052;-64
2021/09/11 14:56:54;;;;;;;2.75;1.33;;;24.30;89.30;;;;;;11997277;28;20057;-64
2021/09/11 15:02:40;;;;;;;1.80;1.20;;;24.20;88.60;;;;;;12022903;28;20787;-64
2021/09/11 15:08:27;;;;;;;5.13;1.38;;;24.40;89.60;;;;;;12008609;28;20056;-64
2021/09/11 15:14:15;;;;;;;3.78;1.30;;;24.60;88.20;;;;;;12016372;27;20056;-64
2021/09/11 15:20:05;;;;;;;4.22;1.50;;;24.90;86.30;;;;;;11996575;28;20529;-64
2021/09/11 15:25:52;;;;;;;2.30;1.40;;;25.30;83.30;;;;;;12040090;27;20116;-64
2021/09/11 15:31:40;;;;;;;4.57;1.40;;;25.70;83.60;;;;;;12040536;28;20048;-63
2021/09/11 15:37:28;;;;;;;3.92;1.88;;;25.60;83.10;;;;;;12015640;27;20465;-63
2021/09/11 15:43:15;;;;;;;2.47;1.60;;;25.20;81.60;;;;;;11993045;28;20082;-63
2021/09/11 15:49:03;;;;;;;2.55;1.33;;;25.00;85.20;;;;;;12011853;28;20048;-63
2021/09/11 15:54:50;;;;;;;4.28;1.58;;;25.30;84.20;;;;;;12033912;27;20121;-64
2021/09/11 16:00:37;;;;;;;1.98;1.58;;;25.00;83.70;;;;;;12037263;28;20057;-64
2021/09/11 16:06:27;;;;;;;3.10;1.60;;;24.70;86.30;;;;;;12021181;28;20102;-64
2021/09/11 16:12:14;;;;;;;4.18;1.42;;;24.40;88.10;;;;;;11989242;28;20044;-65
2021/09/11 16:18:01;;;;;;;2.67;1.60;;;24.20;88.80;;;;;;12029531;28;20040;-64
2021/09/11 16:23:49;;;;;;;3.65;1.42;;;24.20;88.80;;;;;;12013113;28;20061;-64
2021/09/11 16:29:36;;;;;;;2.72;1.40;;;24.50;89.50;;;;;;12027654;28;20033;-64
2021/09/11 16:35:23;;;;;;;2.78;1.40;;;24.60;88.50;;;;;;12021214;28;20041;-64
2021/09/11 16:41:11;;;;;;;4.75;1.30;;;24.90;90.60;;;;;;12030036;27;20041;-64
2021/09/11 16:46:58;;;;;;;4.05;1.25;;;27.20;80.10;;;;;;11988413;28;20049;-65
2021/09/11 16:52:47;;;;;;;1.83;1.38;;;30.50;68.90;;;;;;12015418;28;20057;-65
2021/09/11 16:58:35;;;;;;;2.08;1.30;;;32.60;62.70;;;;;;12009968;28;20072;-65
2021/09/11 17:04:22;;;;;;;2.13;1.33;;;32.00;60.90;;;;;;12010406;28;20443;-64
2021/09/11 17:10:11;;;;;;;1.88;1.60;;;31.20;65.90;;;;;;12007853;28;20044;-65
2021/09/11 17:15:59;;;;;;;1.98;1.48;;;29.70;67.90;;;;;;12034594;28;20234;-65
2021/09/11 17:21:46;;;;;;;2.33;1.30;;;27.60;75.20;;;;;;11985248;28;20060;-64
2021/09/11 17:27:33;;;;;;;3.40;1.50;;;26.20;81.30;;;;;;12025314;28;20447;-64
2021/09/11 17:33:22;;;;;;;2.85;1.50;;;25.20;85.40;;;;;;11999116;28;20047;-64
2021/09/11 17:39:09;;;;;;;2.88;1.52;;;24.60;89.00;;;;;;11993094;28;20532;-65
2021/09/11 17:44:56;;;;;;;3.78;1.90;;;24.10;89.80;;;;;;11982474;28;20499;-65
2021/09/11 17:50:44;;;;;;;5.60;1.75;;;23.70;90.40;;;;;;11987310;28;20052;-65
2021/09/11 17:56:31;;;;;;;3.67;1.90;;;23.30;91.00;;;;;;12016494;28;20063;-64
2021/09/11 18:02:19;;;;;;;3.22;1.63;;;23.00;91.50;;;;;;12031934;28;20047;-65
2021/09/11 18:08:07;;;;;;;5.53;2.10;;;22.80;92.30;;;;;;12007453;28;20048;-65
2021/09/11 18:13:54;;;;;;;1.77;1.63;;;22.60;92.40;;;;;;12009145;28;20049;-65
2021/09/11 18:19:42;;;;;;;4.80;1.90;;;22.40;92.60;;;;;;12033066;27;20052;-65
2021/09/11 18:25:31;;;;;;;3.35;2.00;;;22.10;93.10;;;;;;12011063;28;20052;-65
2021/09/11 18:31:18;;;;;;;5.07;2.20;;;21.90;93.40;;;;;;12008878;28;20029;-65
2021/09/11 18:37:05;;;;;;;5.05;2.10;;;21.80;93.70;;;;;;12013219;28;20516;-65
2021/09/11 18:42:53;;;;;;;3.58;2.10;;;21.70;94.20;;;;;;12021508;28;20037;-65
2021/09/11 18:48:40;;;;;;;4.32;2.67;;;21.60;94.40;;;;;;11993791;28;20055;-65
2021/09/11 18:54:27;;;;;;;5.30;2.60;;;21.60;94.60;;;;;;12010047;28;20052;-65
2021/09/11 19:00:15;;;;;;;5.40;2.40;;;21.50;94.70;;;;;;12041749;27;20037;-64
2021/09/11 19:06:02;;;;;;;10.63;2.50;;;21.40;94.90;;;;;;12028654;28;20045;-64
2021/09/11 19:11:49;;;;;;;10.55;2.83;;;21.40;95.20;;;;;;11991561;28;20037;-64
2021/09/11 19:17:38;;;;;;;9.30;3.22;;;21.30;95.70;;;;;;11992863;28;20045;-64
2021/09/11 19:23:24;;;;;;;9.27;3.40;;;21.20;95.60;;;;;;11998265;28;20055;-64
2021/09/11 19:29:14;;;;;;;5.22;2.65;;;21.10;96.00;;;;;;12021983;28;20449;-64
2021/09/11 19:35:02;;;;;;;6.75;2.78;;;21.00;95.80;;;;;;12014984;27;20049;-64
2021/09/11 19:40:49;;;;;;;4.80;2.70;;;20.90;95.60;;;;;;12016765;28;20049;-64
2021/09/11 19:46:39;;;;;;;5.50;2.55;;;20.80;95.50;;;;;;12015004;27;20044;-64
2021/09/11 19:52:27;;;;;;;10.82;5.57;;;20.80;95.50;;;;;;12017487;27;20049;-64
2021/09/11 19:58:14;;;;;;;6.72;3.25;;;20.80;95.90;;;;;;12034896;28;20690;-64
2021/09/11 20:04:01;;;;;;;10.65;3.38;;;20.80;95.80;;;;;;12040157;27;20105;-63
2021/09/11 20:09:50;;;;;;;6.28;3.38;;;20.80;95.50;;;;;;11993910;27;20060;-64
2021/09/11 20:15:37;;;;;;;12.13;3.28;;;20.80;95.80;;;;;;12005698;28;20040;-64
2021/09/11 20:21:23;;;;;;;8.65;4.22;;;20.80;96.00;;;;;;12038187;28;20039;-64
2021/09/11 20:27:12;;;;;;;9.88;4.28;;;20.80;96.40;;;;;;12024709;28;20061;-64
2021/09/11 20:32:58;;;;;;;11.15;4.45;;;20.70;96.20;;;;;;12000279;28;20045;-64
2021/09/11 20:38:46;;;;;;;9.18;3.70;;;20.70;96.30;;;;;;12001196;28;20056;-64
2021/09/11 20:44:34;;;;;;;8.35;3.90;;;20.70;96.10;;;;;;11988977;28;20057;-64
2021/09/11 20:50:21;;;;;;;6.60;3.78;;;20.60;96.10;;;;;;12020223;28;20083;-64
2021/09/11 20:56:11;;;;;;;9.73;4.10;;;20.50;96.20;;;;;;12007963;28;20052;-64
